createdAt,value
2018-09-27T10:57:07.437Z,7.19
2018-09-27T10:58:07.404Z,8.00
2018-09-27T10:59:07.392Z,4.69
2018-09-27T11:00:07.385Z,6.40
2018-09-27T11:01:07.371Z,8.10
2018-09-27T11:02:07.360Z,6.09
2018-09-27T11:03:07.350Z,5.40
2018-09-27T11:04:07.391Z,6.09
2018-09-27T11:05:07.327Z,6.80
2018-09-27T11:06:07.318Z,4.90
2018-09-27T11:07:07.308Z,5.19
2018-09-27T11:08:07.294Z,7.09
2018-09-27T11:09:07.285Z,8.39
2018-09-27T11:10:07.274Z,6.90
2018-09-27T11:11:07.351Z,5.59
2018-09-27T11:12:07.252Z,5.09
2018-09-27T11:13:07.244Z,7.19
2018-09-27T11:14:07.232Z,5.09
2018-09-27T11:15:07.222Z,6.50
2018-09-27T11:16:07.210Z,5.30
2018-09-27T11:17:07.199Z,5.59
2018-09-27T11:18:07.188Z,5.59
2018-09-27T11:19:07.191Z,5.19
2018-09-27T11:20:07.178Z,5.69
2018-09-27T11:21:07.162Z,5.69
2018-09-27T11:22:07.166Z,5.50
2018-09-27T11:23:07.148Z,4.90
2018-09-27T11:24:07.127Z,5.09
2018-09-27T11:25:07.117Z,7.19
2018-09-27T11:26:07.114Z,5.90
2018-09-27T11:27:07.102Z,5.00
2018-09-27T11:28:07.150Z,5.19
2018-09-27T11:29:07.119Z,4.69
2018-09-27T11:30:07.069Z,5.00
2018-09-27T11:31:07.053Z,4.19
2018-09-27T11:32:07.052Z,6.90
2018-09-27T11:33:07.205Z,4.30
2018-09-27T11:34:07.074Z,5.19
2018-09-27T11:35:07.009Z,6.00
2018-09-27T11:36:06.998Z,4.59
2018-09-27T11:37:06.986Z,3.00
2018-09-27T11:38:06.976Z,3.40
2018-09-27T11:39:06.989Z,4.30
2018-09-27T11:40:06.955Z,4.19
2018-09-27T11:41:06.945Z,3.59
2018-09-27T11:42:06.943Z,4.30
2018-09-27T11:43:06.924Z,4.40
2018-09-27T11:44:06.929Z,4.00
2018-09-27T11:45:06.903Z,3.59
2018-09-27T11:46:06.892Z,3.40
2018-09-27T11:47:06.881Z,4.19
2018-09-27T11:48:06.869Z,2.90
2018-09-27T11:49:06.973Z,3.79
2018-09-27T11:50:07.062Z,4.09
2018-09-27T11:51:06.840Z,4.69
2018-09-27T11:52:06.827Z,3.40
2018-09-27T11:53:06.815Z,4.80
2018-09-27T11:54:06.826Z,3.79
2018-09-27T11:55:06.840Z,4.80
2018-09-27T11:56:06.811Z,3.59
2018-09-27T11:57:06.779Z,3.90
2018-09-27T11:58:06.763Z,5.19
2018-09-27T11:59:06.833Z,3.70
2018-09-27T12:00:06.743Z,3.09
2018-09-27T12:01:06.732Z,3.40
2018-09-27T12:02:06.719Z,4.40
2018-09-27T12:03:06.709Z,3.40
2018-09-27T12:04:06.700Z,3.00
2018-09-27T12:05:06.688Z,4.09
2018-09-27T12:06:06.678Z,2.59
2018-09-27T12:07:06.667Z,2.09
2018-09-27T12:08:06.658Z,2.90
2018-09-27T12:09:06.644Z,3.50
2018-09-27T12:10:06.633Z,3.59
2018-09-27T12:11:06.653Z,3.20
2018-09-27T12:12:06.680Z,2.29
2018-09-27T12:13:06.604Z,2.40
2018-09-27T12:14:06.595Z,2.09
2018-09-27T12:15:06.582Z,2.79
2018-09-27T12:16:06.572Z,4.09
2018-09-27T12:17:06.580Z,3.09
2018-09-27T12:18:06.551Z,2.90
2018-09-27T12:19:06.539Z,3.00
2018-09-27T12:20:06.577Z,2.50
2018-09-27T12:21:06.516Z,2.70
2018-09-27T12:22:06.524Z,3.00
2018-09-27T12:23:06.562Z,2.79
2018-09-27T12:24:06.512Z,2.79
2018-09-27T12:25:06.511Z,2.50
2018-09-27T12:26:06.483Z,2.70
2018-09-27T12:27:06.459Z,2.90
2018-09-27T12:28:06.454Z,2.59
2018-09-27T12:29:06.438Z,1.79
2018-09-27T12:30:06.425Z,3.00
2018-09-27T12:31:06.467Z,2.09
2018-09-27T12:32:06.401Z,1.90
2018-09-27T12:33:06.393Z,2.00
2018-09-27T12:34:06.429Z,2.40
2018-09-27T12:35:06.367Z,3.00
2018-09-27T12:36:06.357Z,1.50
2018-09-27T12:37:06.346Z,3.00
2018-09-27T12:38:06.335Z,1.60
2018-09-27T12:39:06.323Z,1.39
2018-09-27T12:40:06.322Z,3.70
2018-09-27T12:41:06.311Z,2.09
2018-09-27T12:42:06.551Z,2.40
2018-09-27T12:43:06.283Z,3.09
2018-09-27T12:44:06.272Z,1.60
2018-09-27T12:45:06.367Z,2.40
2018-09-27T12:46:06.344Z,2.59
2018-09-27T12:47:06.240Z,3.09
2018-09-27T12:48:06.337Z,2.90
2018-09-27T12:49:06.221Z,3.29
2018-09-27T12:50:06.212Z,1.79
2018-09-27T12:51:06.345Z,2.79
2018-09-27T12:52:06.449Z,3.29
2018-09-27T12:53:06.318Z,2.79
2018-09-27T12:54:06.178Z,2.79
2018-09-27T12:55:06.167Z,2.00
2018-09-27T12:56:06.251Z,4.00
2018-09-27T12:57:06.202Z,1.79
2018-09-27T12:58:06.123Z,2.40
2018-09-27T12:59:06.110Z,2.00
2018-09-27T13:00:06.106Z,2.29
2018-09-27T13:01:06.174Z,3.09
2018-09-27T13:02:06.186Z,1.70
2018-09-27T13:03:06.068Z,3.50
2018-09-27T13:04:06.125Z,2.00
2018-09-27T13:05:06.045Z,2.00
2018-09-27T13:06:06.042Z,2.20
2018-09-27T13:07:06.068Z,2.29
2018-09-27T13:08:06.014Z,3.70
2018-09-27T13:09:06.117Z,3.09
2018-09-27T13:10:06.124Z,2.70
2018-09-27T13:11:05.984Z,2.29
2018-09-27T13:12:06.115Z,2.70
2018-09-27T13:13:06.005Z,1.90
2018-09-27T13:14:05.950Z,2.50
2018-09-27T13:15:06.013Z,1.90
2018-09-27T13:16:05.999Z,2.29
2018-09-27T13:17:05.958Z,1.70
2018-09-27T13:18:05.910Z,2.70
2018-09-27T13:19:05.941Z,2.09
2018-09-27T13:20:05.993Z,3.09
2018-09-27T13:21:05.877Z,1.79
2018-09-27T13:22:05.866Z,2.29
2018-09-27T13:23:05.915Z,2.00
2018-09-27T13:24:05.844Z,1.90
2018-09-27T13:25:05.925Z,2.90
2018-09-27T13:26:05.825Z,2.20
2018-09-27T13:27:05.880Z,1.79
2018-09-27T13:28:05.804Z,2.00
2018-09-27T13:29:05.795Z,1.70
2018-09-27T13:30:05.838Z,1.70
2018-09-27T13:31:05.847Z,2.40
2018-09-27T13:32:05.814Z,2.20
2018-09-27T13:33:05.789Z,1.79
2018-09-27T13:34:05.779Z,1.70
2018-09-27T13:35:05.730Z,2.59
2018-09-27T13:36:05.720Z,1.79
2018-09-27T13:37:05.748Z,2.20
2018-09-27T13:38:05.696Z,1.39
2018-09-27T13:39:05.756Z,2.29
2018-09-27T13:40:05.739Z,1.39
2018-09-27T13:41:05.664Z,3.00
2018-09-27T13:42:05.654Z,2.40
2018-09-27T13:43:05.714Z,1.50
2018-09-27T13:44:05.634Z,1.60
2018-09-27T13:45:05.694Z,3.00
2018-09-27T13:46:05.610Z,1.50
2018-09-27T13:47:05.603Z,2.59
2018-09-27T13:48:05.591Z,2.09
2018-09-27T13:49:05.648Z,2.29
2018-09-27T13:50:05.570Z,1.29
2018-09-27T13:51:05.617Z,1.79
2018-09-27T13:52:05.548Z,1.10
2018-09-27T13:53:05.539Z,1.90
2018-09-27T13:54:05.531Z,1.50
2018-09-27T13:55:05.529Z,1.79
2018-09-27T13:56:05.508Z,2.79
2018-09-27T13:57:05.623Z,1.39
2018-09-27T13:58:05.487Z,2.00
2018-09-27T13:59:05.479Z,1.70
2018-09-27T14:00:05.465Z,1.70
2018-09-27T14:01:05.506Z,2.00
2018-09-27T14:02:05.442Z,1.79
2018-09-27T14:03:05.453Z,1.70
2018-09-27T14:04:05.422Z,2.59
2018-09-27T14:05:05.409Z,2.00
2018-09-27T14:06:05.402Z,2.00
2018-09-27T14:07:05.390Z,1.90
2018-09-27T14:08:05.380Z,2.29
2018-09-27T14:09:05.371Z,2.59
2018-09-27T14:10:05.358Z,1.79
2018-09-27T14:11:05.348Z,1.60
2018-09-27T14:12:05.336Z,1.90
2018-09-27T14:13:05.326Z,1.60
2018-09-27T14:14:05.317Z,2.70
2018-09-27T14:15:05.304Z,2.29
2018-09-27T14:16:05.295Z,2.90
2018-09-27T14:17:05.378Z,1.39
2018-09-27T14:18:05.270Z,1.90
2018-09-27T14:19:05.262Z,2.50
2018-09-27T14:20:05.253Z,2.50
2018-09-27T14:21:05.251Z,2.40
2018-09-27T14:22:05.230Z,1.90
2018-09-27T14:23:05.217Z,1.90
2018-09-27T14:24:05.208Z,1.90
2018-09-27T14:25:05.208Z,2.50
2018-09-27T14:26:05.186Z,3.20
2018-09-27T14:27:05.175Z,2.50
2018-09-27T14:28:05.166Z,3.00
2018-09-27T14:29:05.155Z,2.00
2018-09-27T14:30:05.143Z,3.00
2018-09-27T14:31:05.134Z,1.70
2018-09-27T14:32:05.181Z,3.50
2018-09-27T14:33:05.112Z,3.90
2018-09-27T14:34:05.101Z,2.79
2018-09-27T14:35:05.091Z,1.79
2018-09-27T14:36:05.080Z,2.59
2018-09-27T14:37:05.070Z,3.09
2018-09-27T14:38:05.061Z,2.70
2018-09-27T14:39:05.046Z,2.09
2018-09-27T14:40:05.036Z,1.39
2018-09-27T14:41:05.110Z,3.00
2018-09-27T14:42:05.015Z,2.00
2018-09-27T14:43:05.004Z,2.79
2018-09-27T14:44:04.997Z,3.00
2018-09-27T14:45:04.984Z,2.00
2018-09-27T14:46:04.978Z,3.00
2018-09-27T14:47:04.960Z,5.80
2018-09-27T14:48:05.078Z,2.90
2018-09-27T14:49:04.942Z,2.40
2018-09-27T14:50:04.969Z,3.00
2018-09-27T14:51:04.922Z,3.90
2018-09-27T14:52:04.909Z,4.59
2018-09-27T14:53:04.899Z,6.50
2018-09-27T14:54:04.888Z,3.09
2018-09-27T14:55:04.945Z,2.40
2018-09-27T14:56:04.881Z,2.40
2018-09-27T14:57:04.855Z,2.50
2018-09-27T14:58:04.846Z,3.09
2018-09-27T14:59:04.833Z,2.09
2018-09-27T15:00:04.822Z,3.90
2018-09-27T15:01:04.910Z,3.00
2018-09-27T15:02:04.899Z,2.59
2018-09-27T15:03:04.789Z,2.09
2018-09-27T15:04:04.779Z,2.79
2018-09-27T15:05:04.769Z,2.90
2018-09-27T15:06:04.759Z,3.00
2018-09-27T15:07:04.751Z,2.59
2018-09-27T15:08:04.803Z,3.59
2018-09-27T15:09:04.725Z,3.40
2018-09-27T15:10:04.716Z,3.79
2018-09-27T15:11:04.704Z,3.40
2018-09-27T15:12:04.698Z,3.90
2018-09-27T15:13:04.683Z,2.90
2018-09-27T15:14:04.674Z,2.40
2018-09-27T15:15:04.663Z,2.59
2018-09-27T15:16:04.651Z,3.70
2018-09-27T15:17:04.640Z,5.90
2018-09-27T15:18:04.630Z,3.70
2018-09-27T15:19:04.619Z,4.90
2018-09-27T15:20:04.613Z,2.59
2018-09-27T15:21:04.597Z,2.59
2018-09-27T15:22:04.590Z,4.09
2018-09-27T15:23:04.578Z,3.29
2018-09-27T15:24:04.566Z,3.90
2018-09-27T15:25:04.560Z,4.09
2018-09-27T15:26:04.544Z,2.70
2018-09-27T15:27:04.540Z,2.50
2018-09-27T15:28:04.527Z,3.20
2018-09-27T15:29:04.515Z,2.50
2018-09-27T15:30:04.502Z,3.79
2018-09-27T15:31:04.492Z,3.00
2018-09-27T15:32:04.521Z,5.69
2018-09-27T15:33:04.472Z,4.19
2018-09-27T15:34:04.462Z,4.90
2018-09-27T15:35:04.452Z,2.40
2018-09-27T15:36:04.439Z,3.20
2018-09-27T15:37:04.430Z,3.29
2018-09-27T15:38:04.418Z,3.00
2018-09-27T15:39:04.409Z,3.79
2018-09-27T15:40:04.548Z,3.29
2018-09-27T15:41:04.387Z,3.00
2018-09-27T15:42:04.378Z,2.90
2018-09-27T15:43:04.376Z,2.79
2018-09-27T15:44:04.353Z,2.79
2018-09-27T15:45:04.343Z,2.59
2018-09-27T15:46:04.331Z,3.40
2018-09-27T15:47:04.321Z,4.09
2018-09-27T15:48:04.312Z,2.29
2018-09-27T15:49:04.301Z,2.79
2018-09-27T15:50:04.290Z,2.29
2018-09-27T15:51:04.281Z,2.50
2018-09-27T15:52:04.267Z,2.70
2018-09-27T15:53:04.256Z,1.79
2018-09-27T15:54:04.247Z,4.09
2018-09-27T15:55:04.237Z,4.80
2018-09-27T15:56:04.225Z,3.90
2018-09-27T15:57:04.215Z,2.79
2018-09-27T15:58:04.204Z,2.59
2018-09-27T15:59:04.196Z,3.29
2018-09-27T16:00:04.182Z,4.40
2018-09-27T16:01:04.172Z,2.70
2018-09-27T16:02:04.163Z,3.79
2018-09-27T16:03:04.155Z,3.79
2018-09-27T16:04:04.170Z,3.40
2018-09-27T16:05:04.130Z,3.40
2018-09-27T16:06:04.119Z,3.50
2018-09-27T16:07:04.108Z,3.00
2018-09-27T16:08:04.098Z,2.29
2018-09-27T16:09:04.085Z,2.90
2018-09-27T16:10:04.075Z,4.59
2018-09-27T16:11:04.067Z,5.19
2018-09-27T16:12:04.054Z,3.59
2018-09-27T16:13:04.042Z,3.40
2018-09-27T16:14:04.035Z,4.19
2018-09-27T16:15:04.021Z,3.90
2018-09-27T16:16:04.017Z,3.20
2018-09-27T16:17:04.001Z,3.09
2018-09-27T16:18:03.989Z,3.29
2018-09-27T16:19:03.984Z,2.79
2018-09-27T16:20:03.966Z,3.79
2018-09-27T16:21:03.957Z,3.29
2018-09-27T16:22:04.030Z,3.20
2018-09-27T16:23:03.937Z,3.29
2018-09-27T16:24:03.925Z,2.70
2018-09-27T16:25:03.916Z,3.20
2018-09-27T16:26:03.907Z,3.20
2018-09-27T16:27:03.892Z,2.90
2018-09-27T16:28:03.881Z,3.79
2018-09-27T16:29:03.869Z,5.59
2018-09-27T16:30:03.856Z,3.79
2018-09-27T16:31:03.849Z,2.90
2018-09-27T16:32:03.837Z,3.20
2018-09-27T16:33:03.825Z,4.09
2018-09-27T16:34:03.816Z,3.59
2018-09-27T16:35:03.803Z,5.09
2018-09-27T16:36:03.793Z,3.09
2018-09-27T16:37:03.781Z,3.20
2018-09-27T16:38:03.772Z,4.00
2018-09-27T16:39:03.762Z,3.90
2018-09-27T16:40:03.750Z,3.79
2018-09-27T16:41:03.740Z,3.00
2018-09-27T16:42:03.730Z,3.40
2018-09-27T16:43:03.719Z,3.79
2018-09-27T16:44:03.705Z,4.40
2018-09-27T16:45:03.701Z,2.59
2018-09-27T16:46:03.685Z,3.20
2018-09-27T16:47:03.677Z,2.09
2018-09-27T16:48:03.662Z,3.90
2018-09-27T16:49:03.672Z,3.50
2018-09-27T16:50:03.643Z,3.90
2018-09-27T16:51:03.632Z,3.79
2018-09-27T16:52:03.621Z,3.00
2018-09-27T16:53:03.608Z,2.70
2018-09-27T16:54:03.599Z,3.29
2018-09-27T16:55:03.589Z,3.50
2018-09-27T16:56:03.577Z,2.79
2018-09-27T16:57:03.567Z,2.40
2018-09-27T16:58:03.556Z,3.00
2018-09-27T16:59:03.544Z,2.90
2018-09-27T17:00:03.534Z,2.40
2018-09-27T17:01:03.525Z,4.19
2018-09-27T17:02:03.518Z,2.29
2018-09-27T17:03:03.502Z,3.29
2018-09-27T17:04:03.491Z,2.40
2018-09-27T17:05:03.483Z,2.50
2018-09-27T17:06:03.471Z,2.50
2018-09-27T17:07:03.460Z,3.29
2018-09-27T17:08:03.448Z,2.20
2018-09-27T17:09:03.438Z,3.09
2018-09-27T17:10:03.428Z,3.00
2018-09-27T17:11:03.473Z,5.00
2018-09-27T17:12:03.407Z,3.40
2018-09-27T17:13:03.446Z,2.00
2018-09-27T17:14:03.386Z,3.20
2018-09-27T17:15:03.375Z,3.59
2018-09-27T17:16:03.364Z,3.50
2018-09-27T17:17:03.350Z,4.09
2018-09-27T17:18:03.340Z,2.20
2018-09-27T17:19:03.331Z,4.90
2018-09-27T17:20:03.320Z,4.09
2018-09-27T17:21:03.309Z,4.30
2018-09-27T17:22:03.297Z,3.29
2018-09-27T17:23:03.295Z,3.79
2018-09-27T17:24:03.275Z,3.70
2018-09-27T17:25:03.268Z,2.09
2018-09-27T17:26:03.255Z,2.90
2018-09-27T17:27:03.244Z,3.50
2018-09-27T17:28:03.234Z,3.79
2018-09-27T17:29:03.223Z,4.30
2018-09-27T17:30:03.219Z,3.70
2018-09-27T17:31:03.199Z,3.29
2018-09-27T17:32:03.190Z,3.20
2018-09-27T17:33:03.212Z,3.00
2018-09-27T17:34:03.168Z,2.50
2018-09-27T17:35:03.161Z,2.90
2018-09-27T17:36:03.146Z,2.79
2018-09-27T17:37:03.138Z,4.30
2018-09-27T17:38:03.127Z,3.59
2018-09-27T17:39:03.114Z,2.79
2018-09-27T17:40:03.104Z,2.29
2018-09-27T17:41:03.093Z,4.30
2018-09-27T17:42:03.079Z,2.50
2018-09-27T17:43:03.069Z,3.40
2018-09-27T17:44:03.059Z,3.70
2018-09-27T17:45:03.051Z,2.09
2018-09-27T17:46:03.172Z,3.79
2018-09-27T17:47:03.030Z,3.09
2018-09-27T17:48:03.022Z,3.09
2018-09-27T17:49:03.005Z,2.90
2018-09-27T17:50:02.993Z,2.79
2018-09-27T17:51:02.983Z,4.69
2018-09-27T17:52:02.972Z,4.59
2018-09-27T17:53:02.989Z,4.00
2018-09-27T17:54:02.953Z,3.79
2018-09-27T17:55:02.941Z,3.79
2018-09-27T17:56:02.928Z,3.20
2018-09-27T17:57:02.917Z,3.00
2018-09-27T17:58:02.907Z,3.09
2018-09-27T17:59:02.977Z,3.29
2018-09-27T18:00:02.885Z,4.90
2018-09-27T18:01:02.876Z,4.00
2018-09-27T18:02:02.864Z,5.40
2018-09-27T18:03:02.853Z,5.19
2018-09-27T18:04:02.842Z,4.30
2018-09-27T18:05:02.831Z,3.09
2018-09-27T18:06:02.820Z,4.30
2018-09-27T18:07:02.809Z,3.79
2018-09-27T18:08:02.799Z,3.90
2018-09-27T18:09:02.790Z,3.90
2018-09-27T18:10:02.778Z,3.90
2018-09-27T18:11:02.765Z,3.09
2018-09-27T18:12:02.755Z,3.20
2018-09-27T18:13:02.743Z,4.30
2018-09-27T18:14:02.731Z,5.19
2018-09-27T18:15:02.721Z,3.09
2018-09-27T18:16:02.710Z,4.40
2018-09-27T18:17:02.700Z,3.79
2018-09-27T18:18:02.689Z,2.79
2018-09-27T18:19:02.677Z,3.79
2018-09-27T18:20:02.669Z,3.40
2018-09-27T18:21:02.657Z,4.30
2018-09-27T18:22:02.647Z,2.90
2018-09-27T18:23:02.637Z,3.59
2018-09-27T18:24:02.623Z,4.19
2018-09-27T18:25:02.617Z,3.40
2018-09-27T18:26:02.604Z,3.70
2018-09-27T18:27:02.590Z,3.70
2018-09-27T18:28:02.583Z,3.29
2018-09-27T18:29:02.570Z,3.20
2018-09-27T18:30:02.560Z,4.30
2018-09-27T18:31:02.571Z,3.70
2018-09-27T18:32:02.537Z,3.59
2018-09-27T18:33:02.530Z,4.19
2018-09-27T18:34:02.516Z,2.79
2018-09-27T18:35:02.509Z,3.20
2018-09-27T18:36:02.495Z,3.90
2018-09-27T18:37:02.483Z,4.19
2018-09-27T18:38:02.600Z,3.50
2018-09-27T18:39:02.461Z,3.79
2018-09-27T18:40:02.511Z,5.50
2018-09-27T18:41:02.446Z,4.40
2018-09-27T18:42:02.435Z,4.40
2018-09-27T18:43:02.457Z,3.59
2018-09-27T18:44:02.405Z,3.70
2018-09-27T18:45:02.396Z,4.90
2018-09-27T18:46:02.385Z,4.00
2018-09-27T18:47:02.379Z,4.40
2018-09-27T18:48:02.364Z,4.00
2018-09-27T18:49:02.352Z,3.59
2018-09-27T18:50:02.345Z,3.79
2018-09-27T18:51:02.332Z,4.40
2018-09-27T18:52:02.324Z,3.70
2018-09-27T18:53:02.309Z,2.70
2018-09-27T18:54:02.298Z,3.90
2018-09-27T18:55:02.289Z,3.20
2018-09-27T18:56:02.282Z,4.50
2018-09-27T18:57:02.266Z,4.90
2018-09-27T18:58:02.256Z,4.59
2018-09-27T18:59:02.246Z,3.90
2018-09-27T19:00:02.237Z,3.50
2018-09-27T19:01:02.222Z,4.00
2018-09-27T19:02:02.212Z,4.30
2018-09-27T19:03:02.223Z,4.00
2018-09-27T19:04:02.191Z,2.50
2018-09-27T19:05:02.182Z,3.20
2018-09-27T19:06:02.169Z,3.29
2018-09-27T19:07:02.161Z,3.70
2018-09-27T19:08:02.150Z,5.19
2018-09-27T19:09:02.137Z,3.70
2018-09-27T19:10:02.128Z,5.19
2018-09-27T19:11:02.174Z,3.79
2018-09-27T19:12:02.104Z,3.20
2018-09-27T19:13:02.095Z,3.79
2018-09-27T19:14:02.088Z,4.00
2018-09-27T19:15:02.089Z,5.09
2018-09-27T19:16:02.060Z,4.19
2018-09-27T19:17:02.195Z,3.09
2018-09-27T19:18:02.041Z,4.19
2018-09-27T19:19:02.028Z,3.70
2018-09-27T19:20:02.018Z,4.80
2018-09-27T19:21:02.008Z,5.59
2018-09-27T19:22:01.995Z,4.80
2018-09-27T19:23:01.986Z,3.70
2018-09-27T19:24:01.973Z,4.59
2018-09-27T19:25:01.964Z,4.30
2018-09-27T19:26:01.953Z,3.59
2018-09-27T19:27:01.940Z,5.00
2018-09-27T19:28:01.935Z,3.50
2018-09-27T19:29:01.921Z,3.70
2018-09-27T19:30:01.910Z,3.90
2018-09-27T19:31:01.900Z,5.30
2018-09-27T19:32:01.887Z,4.69
2018-09-27T19:33:01.878Z,4.50
2018-09-27T19:34:01.864Z,4.30
2018-09-27T19:35:01.860Z,4.30
2018-09-27T19:36:01.846Z,4.59
2018-09-27T19:37:01.835Z,3.70
2018-09-27T19:38:01.824Z,4.59
2018-09-27T19:39:01.835Z,4.40
2018-09-27T19:40:01.814Z,5.59
2018-09-27T19:41:01.791Z,3.40
2018-09-27T19:42:01.779Z,4.00
2018-09-27T19:43:01.770Z,3.79
2018-09-27T19:44:01.760Z,3.29
2018-09-27T19:45:01.747Z,5.69
2018-09-27T19:46:01.738Z,3.59
2018-09-27T19:47:01.728Z,3.59
2018-09-27T19:48:01.715Z,5.19
2018-09-27T19:49:01.705Z,5.00
2018-09-27T19:50:01.694Z,6.09
2018-09-27T19:51:01.693Z,4.09
2018-09-27T19:52:01.711Z,5.59
2018-09-27T19:53:01.660Z,6.09
2018-09-27T19:54:01.650Z,6.09
2018-09-27T19:55:01.642Z,5.30
2018-09-27T19:56:01.649Z,4.59
2018-09-27T19:57:01.616Z,5.30
2018-09-27T19:58:01.648Z,4.19
2018-09-27T19:59:01.597Z,4.30
2018-09-27T20:00:01.586Z,4.50
2018-09-27T20:01:01.573Z,5.50
2018-09-27T20:02:01.563Z,4.69
2018-09-27T20:03:01.560Z,4.19
2018-09-27T20:04:01.573Z,3.90
2018-09-27T20:05:01.534Z,4.90
2018-09-27T20:06:01.521Z,5.09
2018-09-27T20:07:01.510Z,3.79
2018-09-27T20:08:01.498Z,5.69
2018-09-27T20:09:01.489Z,6.19
2018-09-27T20:10:01.496Z,4.30
2018-09-27T20:11:01.469Z,5.19
2018-09-27T20:12:01.456Z,5.30
2018-09-27T20:13:01.444Z,4.30
2018-09-27T20:14:01.433Z,6.09
2018-09-27T20:15:01.423Z,4.69
2018-09-27T20:16:01.537Z,3.90
2018-09-27T20:17:01.470Z,5.09
2018-09-27T20:18:01.390Z,5.09
2018-09-27T20:19:01.381Z,5.30
2018-09-27T20:20:01.373Z,4.69
2018-09-27T20:21:01.358Z,4.90
2018-09-27T20:22:01.379Z,5.19
2018-09-27T20:23:01.369Z,5.59
2018-09-27T20:24:01.326Z,4.90
2018-09-27T20:25:01.320Z,5.80
2018-09-27T20:26:01.302Z,4.80
2018-09-27T20:27:01.293Z,6.50
2018-09-27T20:28:01.306Z,4.50
2018-09-27T20:29:01.271Z,4.90
2018-09-27T20:30:01.261Z,4.50
2018-09-27T20:31:01.249Z,3.90
2018-09-27T20:32:01.240Z,4.69
2018-09-27T20:33:01.228Z,5.40
2018-09-27T20:34:01.240Z,5.69
2018-09-27T20:35:01.365Z,4.50
2018-09-27T20:36:01.196Z,4.90
2018-09-27T20:37:01.184Z,4.80
2018-09-27T20:38:01.173Z,4.69
2018-09-27T20:39:01.161Z,5.30
2018-09-27T20:40:01.152Z,5.90
2018-09-27T20:41:01.140Z,6.59
2018-09-27T20:42:01.130Z,4.50
2018-09-27T20:43:01.119Z,5.69
2018-09-27T20:44:01.106Z,4.90
2018-09-27T20:45:01.096Z,5.00
2018-09-27T20:46:01.090Z,5.30
2018-09-27T20:47:01.075Z,6.09
2018-09-27T20:48:01.076Z,5.50
2018-09-27T20:49:01.053Z,5.09
2018-09-27T20:50:01.043Z,6.00
2018-09-27T20:51:01.030Z,8.10
2018-09-27T20:52:01.021Z,7.50
2018-09-27T20:53:01.010Z,9.00
2018-09-27T20:54:01.048Z,6.40
2018-09-27T20:55:00.993Z,9.10
2018-09-27T20:56:00.976Z,7.09
2018-09-27T20:57:00.968Z,6.00
2018-09-27T20:58:00.956Z,6.40
2018-09-27T20:59:00.946Z,7.00
2018-09-27T21:00:00.935Z,6.30
2018-09-27T21:01:00.924Z,6.50
2018-09-27T21:02:00.911Z,6.50
2018-09-27T21:03:00.930Z,5.69
2018-09-27T21:04:00.889Z,7.19
2018-09-27T21:05:00.879Z,6.09
2018-09-27T21:06:00.871Z,5.90
2018-09-27T21:07:00.865Z,7.00
2018-09-27T21:08:00.848Z,6.19
2018-09-27T21:09:00.836Z,7.40
2018-09-27T21:10:00.826Z,7.00
2018-09-27T21:11:00.819Z,6.40
2018-09-27T21:12:00.805Z,7.19
2018-09-27T21:13:00.791Z,5.40
2018-09-27T21:14:00.790Z,6.09
2018-09-27T21:15:00.772Z,5.09
2018-09-27T21:16:00.760Z,7.80
2018-09-27T21:17:00.750Z,6.50
2018-09-27T21:18:00.745Z,5.30
2018-09-27T21:19:00.780Z,5.40
2018-09-27T21:20:00.717Z,7.50
2018-09-27T21:21:00.704Z,7.40
2018-09-27T21:22:00.693Z,6.69
2018-09-27T21:23:00.686Z,5.90
2018-09-27T21:24:00.673Z,5.00
2018-09-27T21:25:00.663Z,5.59
2018-09-27T21:26:00.655Z,7.80
2018-09-27T21:27:00.641Z,6.40
2018-09-27T21:28:00.663Z,6.30
2018-09-27T21:29:00.620Z,5.50
2018-09-27T21:30:00.608Z,6.00
2018-09-27T21:31:00.599Z,6.80
2018-09-27T21:32:00.587Z,6.09
2018-09-27T21:33:00.581Z,6.40
2018-09-27T21:34:00.566Z,6.90
2018-09-27T21:35:00.553Z,5.30
2018-09-27T21:36:00.543Z,5.30
2018-09-27T21:37:00.532Z,6.30
2018-09-27T21:38:00.523Z,5.69
2018-09-27T21:39:00.511Z,5.90
2018-09-27T21:40:00.499Z,4.69
2018-09-27T21:41:00.488Z,7.59
2018-09-27T21:42:00.477Z,5.50
2018-09-27T21:43:00.469Z,5.69
2018-09-27T21:44:00.458Z,6.90
2018-09-27T21:45:00.445Z,5.09
2018-09-27T21:46:00.436Z,5.69
2018-09-27T21:47:00.424Z,6.19
2018-09-27T21:48:00.417Z,6.50
2018-09-27T21:49:00.402Z,4.69
2018-09-27T21:50:00.512Z,5.50
2018-09-27T21:51:00.383Z,5.40
2018-09-27T21:52:00.370Z,5.59
2018-09-27T21:53:00.358Z,5.19
2018-09-27T21:54:00.347Z,4.69
2018-09-27T21:55:00.337Z,7.00
2018-09-27T21:56:00.329Z,5.19
2018-09-27T21:57:00.316Z,5.40
2018-09-27T21:58:00.306Z,5.09
2018-09-27T21:59:00.293Z,5.19
2018-09-27T22:00:00.283Z,4.69
2018-09-27T22:01:00.273Z,5.69
2018-09-27T22:02:00.261Z,6.59
2018-09-27T22:03:00.258Z,5.59
2018-09-27T22:04:00.240Z,4.59
2018-09-27T22:05:00.228Z,6.00
2018-09-27T22:06:00.218Z,6.09
2018-09-27T22:07:00.209Z,6.30
2018-09-27T22:08:00.196Z,8.50
2018-09-27T22:09:00.186Z,5.50
2018-09-27T22:10:00.174Z,5.90
2018-09-27T22:11:00.177Z,5.90
2018-09-27T22:12:00.156Z,5.90
2018-09-27T22:13:00.142Z,5.69
2018-09-27T22:14:00.134Z,5.59
2018-09-27T22:15:00.121Z,5.50
2018-09-27T22:16:00.110Z,7.19
2018-09-27T22:17:00.102Z,5.59
2018-09-27T22:18:00.089Z,5.30
2018-09-27T22:19:00.077Z,6.19
2018-09-27T22:20:00.066Z,5.50
2018-09-27T22:21:00.059Z,6.19
2018-09-27T22:22:00.046Z,5.69
2018-09-27T22:23:00.034Z,6.69
2018-09-27T22:24:00.025Z,5.30
2018-09-27T22:25:00.017Z,5.09
2018-09-27T22:26:00.000Z,5.69
2018-09-27T22:26:59.993Z,6.80
2018-09-27T22:27:59.979Z,6.30
2018-09-27T22:28:59.969Z,7.50
2018-09-27T22:29:59.959Z,5.90
2018-09-27T22:30:59.948Z,5.59
2018-09-27T22:31:59.941Z,5.80
2018-09-27T22:32:59.929Z,5.50
2018-09-27T22:33:59.914Z,6.80
2018-09-27T22:34:59.909Z,5.80
2018-09-27T22:35:59.894Z,5.90
2018-09-27T22:36:59.883Z,7.50
2018-09-27T22:37:59.873Z,6.09
2018-09-27T22:38:59.862Z,7.90
2018-09-27T22:39:59.851Z,6.00
2018-09-27T22:40:59.838Z,6.69
2018-09-27T22:41:59.833Z,7.09
2018-09-27T22:42:59.818Z,8.39
2018-09-27T22:43:59.807Z,6.80
2018-09-27T22:44:59.799Z,6.69
2018-09-27T22:45:59.785Z,7.50
2018-09-27T22:46:59.774Z,6.30
2018-09-27T22:47:59.764Z,7.59
2018-09-27T22:48:59.754Z,7.40
2018-09-27T22:49:59.743Z,7.59
2018-09-27T22:50:59.731Z,8.00
2018-09-27T22:51:59.721Z,9.30
2018-09-27T22:52:59.710Z,7.00
2018-09-27T22:53:59.699Z,5.90
2018-09-27T22:54:59.688Z,7.19
2018-09-27T22:55:59.677Z,6.50
2018-09-27T22:56:59.671Z,6.09
2018-09-27T22:57:59.656Z,6.00
2018-09-27T22:58:59.646Z,6.80
2018-09-27T22:59:59.635Z,7.80
2018-09-27T23:00:59.623Z,5.80
2018-09-27T23:01:59.611Z,6.90
2018-09-27T23:02:59.602Z,7.00
2018-09-27T23:03:59.590Z,7.00
2018-09-27T23:04:59.582Z,6.50
2018-09-27T23:05:59.570Z,7.09
2018-09-27T23:06:59.560Z,7.90
2018-09-27T23:07:59.547Z,6.00
2018-09-27T23:08:59.537Z,7.00
2018-09-27T23:09:59.526Z,6.50
2018-09-27T23:10:59.515Z,6.40
2018-09-27T23:11:59.506Z,6.50
2018-09-27T23:12:59.494Z,8.50
2018-09-27T23:13:59.482Z,6.59
2018-09-27T23:14:59.472Z,7.19
2018-09-27T23:15:59.460Z,6.69
2018-09-27T23:16:59.452Z,6.59
2018-09-27T23:17:59.442Z,8.00
2018-09-27T23:18:59.432Z,8.00
2018-09-27T23:19:59.419Z,9.10
2018-09-27T23:20:59.407Z,9.00
2018-09-27T23:21:59.398Z,8.00
2018-09-27T23:22:59.384Z,8.19
2018-09-27T23:23:59.376Z,7.80
2018-09-27T23:24:59.363Z,7.69
2018-09-27T23:25:59.464Z,6.80
2018-09-27T23:26:59.343Z,8.10
2018-09-27T23:27:59.331Z,7.19
2018-09-27T23:28:59.321Z,8.19
2018-09-27T23:29:59.308Z,8.80
2018-09-27T23:30:59.301Z,8.00
2018-09-27T23:31:59.289Z,7.09
2018-09-27T23:32:59.277Z,8.19
2018-09-27T23:33:59.265Z,8.10
2018-09-27T23:34:59.255Z,8.00
2018-09-27T23:35:59.244Z,7.80
2018-09-27T23:36:59.235Z,7.80
2018-09-27T23:37:59.222Z,7.69
2018-09-27T23:38:59.213Z,8.80
2018-09-27T23:39:59.202Z,6.90
2018-09-27T23:40:59.191Z,6.69
2018-09-27T23:41:59.179Z,8.10
2018-09-27T23:42:59.170Z,6.69
2018-09-27T23:43:59.161Z,8.39
2018-09-27T23:44:59.148Z,7.80
2018-09-27T23:45:59.137Z,7.50
2018-09-27T23:46:59.125Z,6.80
2018-09-27T23:47:59.113Z,7.19
2018-09-27T23:48:59.108Z,7.50
2018-09-27T23:49:59.092Z,7.40
2018-09-27T23:50:59.086Z,6.50
2018-09-27T23:51:59.071Z,6.80
2018-09-27T23:52:59.061Z,8.19
2018-09-27T23:53:59.049Z,7.40
2018-09-27T23:54:59.038Z,6.90
2018-09-27T23:55:59.030Z,8.19
2018-09-27T23:56:59.019Z,7.40
2018-09-27T23:57:59.007Z,6.80
2018-09-27T23:58:58.996Z,6.19
2018-09-27T23:59:58.985Z,6.09
